sensor_id;sensor_type;location;lat;lon;timestamp;temperature;humidity
35607;DHT22;21729;58.392;15.656;2023-03-21T00:01:50;1.90;99.90
35607;DHT22;21729;58.392;15.656;2023-03-21T00:04:18;1.90;99.90
35607;DHT22;21729;58.392;15.656;2023-03-21T00:06:45;2.00;99.90
35607;DHT22;21729;58.392;15.656;2023-03-21T00:09:12;1.90;99.90
35607;DHT22;21729;58.392;15.656;2023-03-21T00:11:39;1.90;99.90
35607;DHT22;21729;58.392;15.656;2023-03-21T00:14:06;1.90;99.90
35607;DHT22;21729;58.392;15.656;2023-03-21T00:16:40;1.90;99.90
35607;DHT22;21729;58.392;15.656;2023-03-21T00:19:11;1.90;99.90
35607;DHT22;21729;58.392;15.656;2023-03-21T00:21:39;1.80;99.90
35607;DHT22;21729;58.392;15.656;2023-03-21T00:24:07;1.80;99.90
35607;DHT22;21729;58.392;15.656;2023-03-21T00:26:34;1.60;99.90
35607;DHT22;21729;58.392;15.656;2023-03-21T00:29:02;1.90;99.90
35607;DHT22;21729;58.392;15.656;2023-03-21T00:31:29;1.90;99.90
35607;DHT22;21729;58.392;15.656;2023-03-21T00:33:57;1.90;99.90
35607;DHT22;21729;58.392;15.656;2023-03-21T00:36:25;1.80;99.90
35607;DHT22;21729;58.392;15.656;2023-03-21T00:38:53;1.70;99.90
35607;DHT22;21729;58.392;15.656;2023-03-21T00:41:20;1.80;99.90
35607;DHT22;21729;58.392;15.656;2023-03-21T00:43:47;1.80;99.90
35607;DHT22;21729;58.392;15.656;2023-03-21T00:46:16;1.90;99.90
35607;DHT22;21729;58.392;15.656;2023-03-21T00:48:43;1.90;99.90
35607;DHT22;21729;58.392;15.656;2023-03-21T00:51:12;1.90;99.90
35607;DHT22;21729;58.392;15.656;2023-03-21T00:53:42;1.90;99.90
35607;DHT22;21729;58.392;15.656;2023-03-21T00:56:09;1.90;99.90
35607;DHT22;21729;58.392;15.656;2023-03-21T00:58:36;1.80;99.90
35607;DHT22;21729;58.392;15.656;2023-03-21T01:01:04;1.80;99.90
35607;DHT22;21729;58.392;15.656;2023-03-21T01:03:33;1.80;99.90
35607;DHT22;21729;58.392;15.656;2023-03-21T01:06:08;1.80;99.90
35607;DHT22;21729;58.392;15.656;2023-03-21T01:08:39;1.90;99.90
35607;DHT22;21729;58.392;15.656;2023-03-21T01:11:10;1.90;99.90
35607;DHT22;21729;58.392;15.656;2023-03-21T01:13:38;1.90;99.90
35607;DHT22;21729;58.392;15.656;2023-03-21T01:16:07;1.90;99.90
35607;DHT22;21729;58.392;15.656;2023-03-21T01:18:36;1.80;99.90
35607;DHT22;21729;58.392;15.656;2023-03-21T01:21:06;1.80;99.90
35607;DHT22;21729;58.392;15.656;2023-03-21T01:23:34;1.80;99.90
35607;DHT22;21729;58.392;15.656;2023-03-21T01:26:02;1.70;99.90
35607;DHT22;21729;58.392;15.656;2023-03-21T01:28:31;1.70;99.90
35607;DHT22;21729;58.392;15.656;2023-03-21T01:31:00;1.60;99.90
35607;DHT22;21729;58.392;15.656;2023-03-21T01:33:28;1.60;99.90
35607;DHT22;21729;58.392;15.656;2023-03-21T01:35:55;1.40;99.90
35607;DHT22;21729;58.392;15.656;2023-03-21T01:38:23;1.20;99.90
35607;DHT22;21729;58.392;15.656;2023-03-21T01:40:50;1.00;99.90
35607;DHT22;21729;58.392;15.656;2023-03-21T01:43:26;0.90;99.90
35607;DHT22;21729;58.392;15.656;2023-03-21T01:48:59;0.60;99.90
35607;DHT22;21729;58.392;15.656;2023-03-21T01:51:29;0.60;1.00
35607;DHT22;21729;58.392;15.656;2023-03-21T01:53:57;0.50;1.00
35607;DHT22;21729;58.392;15.656;2023-03-21T01:56:28;0.50;1.00
35607;DHT22;21729;58.392;15.656;2023-03-21T01:59:00;0.40;1.00
35607;DHT22;21729;58.392;15.656;2023-03-21T02:01:29;0.40;1.00
35607;DHT22;21729;58.392;15.656;2023-03-21T02:04:01;0.50;1.00
35607;DHT22;21729;58.392;15.656;2023-03-21T02:06:34;0.50;1.00
35607;DHT22;21729;58.392;15.656;2023-03-21T02:09:05;0.60;1.00
35607;DHT22;21729;58.392;15.656;2023-03-21T02:11:35;0.80;1.00
35607;DHT22;21729;58.392;15.656;2023-03-21T02:14:04;0.80;1.00
35607;DHT22;21729;58.392;15.656;2023-03-21T02:16:41;0.90;1.00
35607;DHT22;21729;58.392;15.656;2023-03-21T02:22:40;1.10;1.00
35607;DHT22;21729;58.392;15.656;2023-03-21T02:25:37;1.20;1.00
35607;DHT22;21729;58.392;15.656;2023-03-21T02:28:12;1.20;1.00
35607;DHT22;21729;58.392;15.656;2023-03-21T02:31:04;1.20;1.00
35607;DHT22;21729;58.392;15.656;2023-03-21T02:34:02;1.30;1.00
35607;DHT22;21729;58.392;15.656;2023-03-21T02:36:59;1.30;1.00
35607;DHT22;21729;58.392;15.656;2023-03-21T02:39:39;1.30;1.00
35607;DHT22;21729;58.392;15.656;2023-03-21T02:42:09;1.20;1.00
35607;DHT22;21729;58.392;15.656;2023-03-21T02:44:45;1.30;1.00
35607;DHT22;21729;58.392;15.656;2023-03-21T02:47:18;1.30;1.00
35607;DHT22;21729;58.392;15.656;2023-03-21T02:49:49;1.30;1.00
35607;DHT22;21729;58.392;15.656;2023-03-21T02:52:27;1.30;1.00
35607;DHT22;21729;58.392;15.656;2023-03-21T02:54:56;1.30;1.00
35607;DHT22;21729;58.392;15.656;2023-03-21T02:57:24;1.40;1.00
35607;DHT22;21729;58.392;15.656;2023-03-21T02:59:52;1.50;1.00
35607;DHT22;21729;58.392;15.656;2023-03-21T03:02:24;1.40;1.00
35607;DHT22;21729;58.392;15.656;2023-03-21T03:04:52;1.40;99.90
35607;DHT22;21729;58.392;15.656;2023-03-21T03:07:33;1.40;99.90
35607;DHT22;21729;58.392;15.656;2023-03-21T03:13:24;1.40;1.00
35607;DHT22;21729;58.392;15.656;2023-03-21T03:16:03;1.40;99.90
35607;DHT22;21729;58.392;15.656;2023-03-21T03:18:40;1.50;99.90
35607;DHT22;21729;58.392;15.656;2023-03-21T03:21:12;1.40;99.90
35607;DHT22;21729;58.392;15.656;2023-03-21T03:23:45;1.50;99.90
35607;DHT22;21729;58.392;15.656;2023-03-21T03:26:18;1.50;99.90
35607;DHT22;21729;58.392;15.656;2023-03-21T03:28:49;1.50;99.90
35607;DHT22;21729;58.392;15.656;2023-03-21T03:31:20;1.50;99.90
35607;DHT22;21729;58.392;15.656;2023-03-21T03:33:52;1.40;99.90
35607;DHT22;21729;58.392;15.656;2023-03-21T03:36:22;1.30;99.90
35607;DHT22;21729;58.392;15.656;2023-03-21T03:38:54;1.30;99.90
35607;DHT22;21729;58.392;15.656;2023-03-21T03:41:25;1.30;99.90
35607;DHT22;21729;58.392;15.656;2023-03-21T03:43:55;1.30;99.90
35607;DHT22;21729;58.392;15.656;2023-03-21T03:46:27;1.30;99.90
35607;DHT22;21729;58.392;15.656;2023-03-21T03:49:00;1.30;99.90
35607;DHT22;21729;58.392;15.656;2023-03-21T03:51:30;1.30;99.90
35607;DHT22;21729;58.392;15.656;2023-03-21T03:54:02;1.30;99.90
35607;DHT22;21729;58.392;15.656;2023-03-21T03:56:32;1.30;99.90
35607;DHT22;21729;58.392;15.656;2023-03-21T03:59:01;1.30;99.90
35607;DHT22;21729;58.392;15.656;2023-03-21T04:01:29;1.30;99.90
35607;DHT22;21729;58.392;15.656;2023-03-21T04:03:57;1.30;99.90
35607;DHT22;21729;58.392;15.656;2023-03-21T04:06:25;1.30;99.90
35607;DHT22;21729;58.392;15.656;2023-03-21T04:08:53;1.20;99.90
35607;DHT22;21729;58.392;15.656;2023-03-21T04:11:22;1.20;99.90
35607;DHT22;21729;58.392;15.656;2023-03-21T04:13:49;1.30;99.90
35607;DHT22;21729;58.392;15.656;2023-03-21T04:16:17;1.30;99.90
35607;DHT22;21729;58.392;15.656;2023-03-21T04:18:44;1.30;99.90
35607;DHT22;21729;58.392;15.656;2023-03-21T04:21:12;1.30;99.90
35607;DHT22;21729;58.392;15.656;2023-03-21T04:23:39;1.40;99.90
35607;DHT22;21729;58.392;15.656;2023-03-21T04:26:07;1.40;99.90
35607;DHT22;21729;58.392;15.656;2023-03-21T04:28:36;1.30;99.90
35607;DHT22;21729;58.392;15.656;2023-03-21T04:31:06;1.40;99.90
35607;DHT22;21729;58.392;15.656;2023-03-21T04:33:34;1.40;99.90
35607;DHT22;21729;58.392;15.656;2023-03-21T04:36:04;1.30;99.90
35607;DHT22;21729;58.392;15.656;2023-03-21T04:38:31;1.40;99.90
35607;DHT22;21729;58.392;15.656;2023-03-21T04:40:59;1.50;99.90
35607;DHT22;21729;58.392;15.656;2023-03-21T04:43:26;1.50;99.90
35607;DHT22;21729;58.392;15.656;2023-03-21T04:45:55;1.50;99.90
35607;DHT22;21729;58.392;15.656;2023-03-21T04:48:22;1.40;99.90
35607;DHT22;21729;58.392;15.656;2023-03-21T04:50:50;1.40;99.90
35607;DHT22;21729;58.392;15.656;2023-03-21T04:53:17;1.40;99.90
35607;DHT22;21729;58.392;15.656;2023-03-21T04:55:45;1.40;99.90
35607;DHT22;21729;58.392;15.656;2023-03-21T04:58:12;1.40;99.90
35607;DHT22;21729;58.392;15.656;2023-03-21T05:00:39;1.30;99.90
35607;DHT22;21729;58.392;15.656;2023-03-21T05:03:08;1.40;99.90
35607;DHT22;21729;58.392;15.656;2023-03-21T05:05:35;1.40;99.90
35607;DHT22;21729;58.392;15.656;2023-03-21T05:08:03;1.40;99.90
35607;DHT22;21729;58.392;15.656;2023-03-21T05:10:31;1.40;99.90
35607;DHT22;21729;58.392;15.656;2023-03-21T05:12:59;1.50;99.90
35607;DHT22;21729;58.392;15.656;2023-03-21T05:15:26;1.40;99.90
35607;DHT22;21729;58.392;15.656;2023-03-21T05:17:53;1.40;99.90
35607;DHT22;21729;58.392;15.656;2023-03-21T05:20:24;1.40;99.90
35607;DHT22;21729;58.392;15.656;2023-03-21T05:22:51;1.40;99.90
35607;DHT22;21729;58.392;15.656;2023-03-21T05:25:18;1.50;99.90
35607;DHT22;21729;58.392;15.656;2023-03-21T05:27:58;1.40;99.90
35607;DHT22;21729;58.392;15.656;2023-03-21T05:30:27;1.40;99.90
35607;DHT22;21729;58.392;15.656;2023-03-21T05:32:54;1.30;99.90
35607;DHT22;21729;58.392;15.656;2023-03-21T05:35:21;1.40;99.90
35607;DHT22;21729;58.392;15.656;2023-03-21T05:37:50;1.40;99.90
35607;DHT22;21729;58.392;15.656;2023-03-21T05:40:17;1.40;99.90
35607;DHT22;21729;58.392;15.656;2023-03-21T05:42:45;1.40;99.90
35607;DHT22;21729;58.392;15.656;2023-03-21T05:45:13;1.30;99.90
35607;DHT22;21729;58.392;15.656;2023-03-21T05:47:40;1.30;99.90
35607;DHT22;21729;58.392;15.656;2023-03-21T05:50:08;1.40;99.90
35607;DHT22;21729;58.392;15.656;2023-03-21T05:52:36;1.40;99.90
35607;DHT22;21729;58.392;15.656;2023-03-21T05:55:05;1.40;99.90
35607;DHT22;21729;58.392;15.656;2023-03-21T05:57:32;1.40;99.90
35607;DHT22;21729;58.392;15.656;2023-03-21T06:00:05;1.40;99.90
35607;DHT22;21729;58.392;15.656;2023-03-21T06:02:32;1.40;99.90
35607;DHT22;21729;58.392;15.656;2023-03-21T06:05:00;1.40;99.90
35607;DHT22;21729;58.392;15.656;2023-03-21T06:07:27;1.50;99.90
35607;DHT22;21729;58.392;15.656;2023-03-21T06:09:54;1.50;99.90
35607;DHT22;21729;58.392;15.656;2023-03-21T06:12:22;1.50;99.90
35607;DHT22;21729;58.392;15.656;2023-03-21T06:14:50;1.60;99.90
35607;DHT22;21729;58.392;15.656;2023-03-21T06:17:17;1.50;99.90
35607;DHT22;21729;58.392;15.656;2023-03-21T06:19:44;1.50;99.90
35607;DHT22;21729;58.392;15.656;2023-03-21T06:22:11;1.50;99.90
35607;DHT22;21729;58.392;15.656;2023-03-21T06:24:38;1.60;99.90
35607;DHT22;21729;58.392;15.656;2023-03-21T06:27:06;1.70;99.90
35607;DHT22;21729;58.392;15.656;2023-03-21T06:29:34;1.50;99.90
35607;DHT22;21729;58.392;15.656;2023-03-21T06:32:01;1.50;99.90
35607;DHT22;21729;58.392;15.656;2023-03-21T06:34:28;1.60;99.90
35607;DHT22;21729;58.392;15.656;2023-03-21T06:36:56;1.70;99.90
35607;DHT22;21729;58.392;15.656;2023-03-21T06:39:23;1.70;99.90
35607;DHT22;21729;58.392;15.656;2023-03-21T06:41:50;1.70;99.90
35607;DHT22;21729;58.392;15.656;2023-03-21T06:44:17;1.70;99.90
35607;DHT22;21729;58.392;15.656;2023-03-21T06:46:48;1.70;99.90
35607;DHT22;21729;58.392;15.656;2023-03-21T06:49:15;1.80;99.90
35607;DHT22;21729;58.392;15.656;2023-03-21T06:51:42;1.70;99.90
35607;DHT22;21729;58.392;15.656;2023-03-21T06:54:09;1.70;99.90
35607;DHT22;21729;58.392;15.656;2023-03-21T06:56:36;1.60;99.90
35607;DHT22;21729;58.392;15.656;2023-03-21T06:59:03;1.60;99.90
35607;DHT22;21729;58.392;15.656;2023-03-21T07:01:31;1.70;99.90
35607;DHT22;21729;58.392;15.656;2023-03-21T07:03:59;1.80;99.90
35607;DHT22;21729;58.392;15.656;2023-03-21T07:06:26;2.00;99.90
35607;DHT22;21729;58.392;15.656;2023-03-21T07:08:54;2.00;99.90
35607;DHT22;21729;58.392;15.656;2023-03-21T07:11:22;2.10;99.90
35607;DHT22;21729;58.392;15.656;2023-03-21T07:13:50;2.10;99.90
35607;DHT22;21729;58.392;15.656;2023-03-21T07:16:18;2.20;99.90
35607;DHT22;21729;58.392;15.656;2023-03-21T07:18:46;2.40;99.90
35607;DHT22;21729;58.392;15.656;2023-03-21T07:21:14;2.50;99.90
35607;DHT22;21729;58.392;15.656;2023-03-21T07:23:42;2.50;99.90
35607;DHT22;21729;58.392;15.656;2023-03-21T07:26:09;2.60;99.90
35607;DHT22;21729;58.392;15.656;2023-03-21T07:28:36;2.40;99.90
35607;DHT22;21729;58.392;15.656;2023-03-21T07:31:05;2.30;99.90
35607;DHT22;21729;58.392;15.656;2023-03-21T07:33:34;2.50;99.90
35607;DHT22;21729;58.392;15.656;2023-03-21T07:36:01;2.60;99.90
35607;DHT22;21729;58.392;15.656;2023-03-21T07:38:30;2.50;99.90
35607;DHT22;21729;58.392;15.656;2023-03-21T07:40:58;2.20;99.90
35607;DHT22;21729;58.392;15.656;2023-03-21T07:43:26;2.40;99.90
35607;DHT22;21729;58.392;15.656;2023-03-21T07:45:56;2.40;99.90
35607;DHT22;21729;58.392;15.656;2023-03-21T07:48:23;2.40;99.90
35607;DHT22;21729;58.392;15.656;2023-03-21T07:50:51;2.20;99.90
35607;DHT22;21729;58.392;15.656;2023-03-21T07:53:18;2.30;99.90
35607;DHT22;21729;58.392;15.656;2023-03-21T07:55:50;2.50;99.90
35607;DHT22;21729;58.392;15.656;2023-03-21T07:58:17;2.60;99.90
35607;DHT22;21729;58.392;15.656;2023-03-21T08:00:44;2.60;99.90
35607;DHT22;21729;58.392;15.656;2023-03-21T08:03:11;2.80;99.90
35607;DHT22;21729;58.392;15.656;2023-03-21T08:05:39;2.90;99.90
35607;DHT22;21729;58.392;15.656;2023-03-21T08:08:07;3.10;99.90
35607;DHT22;21729;58.392;15.656;2023-03-21T08:10:34;3.50;36.30
35607;DHT22;21729;58.392;15.656;2023-03-21T08:13:04;4.60;48.50
35607;DHT22;21729;58.392;15.656;2023-03-21T08:15:31;6.40;1.00
35607;DHT22;21729;58.392;15.656;2023-03-21T08:17:58;6.80;99.90
35607;DHT22;21729;58.392;15.656;2023-03-21T08:20:26;6.70;99.90
35607;DHT22;21729;58.392;15.656;2023-03-21T08:22:53;6.10;99.90
35607;DHT22;21729;58.392;15.656;2023-03-21T08:25:21;5.30;1.00
35607;DHT22;21729;58.392;15.656;2023-03-21T08:27:49;5.20;99.90
35607;DHT22;21729;58.392;15.656;2023-03-21T08:30:20;5.30;1.00
35607;DHT22;21729;58.392;15.656;2023-03-21T08:32:47;5.10;1.00
35607;DHT22;21729;58.392;15.656;2023-03-21T08:35:17;4.60;1.00
35607;DHT22;21729;58.392;15.656;2023-03-21T08:37:45;4.20;1.00
35607;DHT22;21729;58.392;15.656;2023-03-21T08:40:14;4.20;1.00
35607;DHT22;21729;58.392;15.656;2023-03-21T08:42:43;4.00;1.00
35607;DHT22;21729;58.392;15.656;2023-03-21T08:45:12;4.30;1.00
35607;DHT22;21729;58.392;15.656;2023-03-21T08:47:41;4.90;1.00
35607;DHT22;21729;58.392;15.656;2023-03-21T08:50:11;5.20;1.00
35607;DHT22;21729;58.392;15.656;2023-03-21T08:52:38;4.60;1.00
35607;DHT22;21729;58.392;15.656;2023-03-21T08:55:08;4.60;1.00
35607;DHT22;21729;58.392;15.656;2023-03-21T08:57:35;4.80;1.00
35607;DHT22;21729;58.392;15.656;2023-03-21T09:00:03;4.40;1.00
35607;DHT22;21729;58.392;15.656;2023-03-21T09:02:36;4.10;1.00
35607;DHT22;21729;58.392;15.656;2023-03-21T09:05:05;4.30;1.00
35607;DHT22;21729;58.392;15.656;2023-03-21T09:07:33;4.30;1.00
35607;DHT22;21729;58.392;15.656;2023-03-21T09:10:01;4.30;1.00
35607;DHT22;21729;58.392;15.656;2023-03-21T09:12:28;4.50;1.00
35607;DHT22;21729;58.392;15.656;2023-03-21T09:14:55;4.50;1.00
35607;DHT22;21729;58.392;15.656;2023-03-21T09:17:22;4.60;1.00
35607;DHT22;21729;58.392;15.656;2023-03-21T09:19:50;4.70;1.00
35607;DHT22;21729;58.392;15.656;2023-03-21T09:22:19;5.00;1.00
35607;DHT22;21729;58.392;15.656;2023-03-21T09:24:48;5.60;1.00
35607;DHT22;21729;58.392;15.656;2023-03-21T09:27:16;5.70;1.00
35607;DHT22;21729;58.392;15.656;2023-03-21T09:29:47;5.70;1.00
35607;DHT22;21729;58.392;15.656;2023-03-21T09:32:15;5.80;99.90
35607;DHT22;21729;58.392;15.656;2023-03-21T09:34:43;5.80;99.90
35607;DHT22;21729;58.392;15.656;2023-03-21T09:37:11;5.80;1.00
35607;DHT22;21729;58.392;15.656;2023-03-21T09:39:40;5.80;1.00
35607;DHT22;21729;58.392;15.656;2023-03-21T09:42:32;5.80;1.00
35607;DHT22;21729;58.392;15.656;2023-03-21T09:45:09;6.10;99.90
35607;DHT22;21729;58.392;15.656;2023-03-21T09:47:43;5.80;99.90
35607;DHT22;21729;58.392;15.656;2023-03-21T09:50:19;5.90;1.40
35607;DHT22;21729;58.392;15.656;2023-03-21T09:52:55;5.50;1.00
35607;DHT22;21729;58.392;15.656;2023-03-21T09:55:26;5.50;1.00
35607;DHT22;21729;58.392;15.656;2023-03-21T09:58:01;5.70;99.90
35607;DHT22;21729;58.392;15.656;2023-03-21T10:00:35;5.80;99.90
35607;DHT22;21729;58.392;15.656;2023-03-21T10:03:04;6.10;99.90
35607;DHT22;21729;58.392;15.656;2023-03-21T10:05:37;5.80;1.00
35607;DHT22;21729;58.392;15.656;2023-03-21T10:08:13;5.60;99.90
35607;DHT22;21729;58.392;15.656;2023-03-21T10:10:46;5.60;99.90
35607;DHT22;21729;58.392;15.656;2023-03-21T10:13:18;6.00;1.00
35607;DHT22;21729;58.392;15.656;2023-03-21T10:15:46;6.00;99.90
35607;DHT22;21729;58.392;15.656;2023-03-21T10:18:19;6.60;99.90
35607;DHT22;21729;58.392;15.656;2023-03-21T10:20:48;6.80;99.90
35607;DHT22;21729;58.392;15.656;2023-03-21T10:23:18;7.60;99.90
35607;DHT22;21729;58.392;15.656;2023-03-21T10:25:52;8.10;99.90
35607;DHT22;21729;58.392;15.656;2023-03-21T10:28:23;8.00;99.90
35607;DHT22;21729;58.392;15.656;2023-03-21T10:30:52;7.90;99.90
35607;DHT22;21729;58.392;15.656;2023-03-21T10:33:23;7.80;99.90
35607;DHT22;21729;58.392;15.656;2023-03-21T10:35:53;7.80;99.90
35607;DHT22;21729;58.392;15.656;2023-03-21T10:38:24;7.90;99.90
35607;DHT22;21729;58.392;15.656;2023-03-21T10:40:53;7.50;99.90
35607;DHT22;21729;58.392;15.656;2023-03-21T10:43:32;7.30;99.90
35607;DHT22;21729;58.392;15.656;2023-03-21T10:46:10;6.80;99.90
35607;DHT22;21729;58.392;15.656;2023-03-21T10:48:39;6.70;99.90
35607;DHT22;21729;58.392;15.656;2023-03-21T10:51:16;6.40;99.90
35607;DHT22;21729;58.392;15.656;2023-03-21T10:53:48;6.20;99.90
35607;DHT22;21729;58.392;15.656;2023-03-21T10:56:18;6.20;99.90
35607;DHT22;21729;58.392;15.656;2023-03-21T10:58:49;6.70;99.90
35607;DHT22;21729;58.392;15.656;2023-03-21T11:01:26;7.10;99.90
35607;DHT22;21729;58.392;15.656;2023-03-21T11:03:57;6.40;99.90
35607;DHT22;21729;58.392;15.656;2023-03-21T11:06:30;6.90;99.90
35607;DHT22;21729;58.392;15.656;2023-03-21T11:09:03;7.00;99.90
35607;DHT22;21729;58.392;15.656;2023-03-21T11:11:37;6.70;99.90
35607;DHT22;21729;58.392;15.656;2023-03-21T11:14:06;6.70;99.90
35607;DHT22;21729;58.392;15.656;2023-03-21T11:16:38;7.20;99.90
35607;DHT22;21729;58.392;15.656;2023-03-21T11:19:17;7.20;99.90
35607;DHT22;21729;58.392;15.656;2023-03-21T11:21:45;6.70;99.90
35607;DHT22;21729;58.392;15.656;2023-03-21T11:24:14;6.60;99.90
35607;DHT22;21729;58.392;15.656;2023-03-21T11:26:46;6.80;99.90
35607;DHT22;21729;58.392;15.656;2023-03-21T11:29:28;6.70;99.90
35607;DHT22;21729;58.392;15.656;2023-03-21T11:32:00;6.80;99.90
35607;DHT22;21729;58.392;15.656;2023-03-21T11:34:31;6.80;99.90
35607;DHT22;21729;58.392;15.656;2023-03-21T11:37:01;7.00;99.90
35607;DHT22;21729;58.392;15.656;2023-03-21T11:39:33;7.00;99.90
35607;DHT22;21729;58.392;15.656;2023-03-21T11:42:03;7.10;99.90
35607;DHT22;21729;58.392;15.656;2023-03-21T11:44:32;6.60;99.90
35607;DHT22;21729;58.392;15.656;2023-03-21T11:47:00;6.90;99.90
35607;DHT22;21729;58.392;15.656;2023-03-21T11:49:28;7.00;99.90
35607;DHT22;21729;58.392;15.656;2023-03-21T11:52:16;7.30;99.90
35607;DHT22;21729;58.392;15.656;2023-03-21T11:55:25;7.50;99.90
35607;DHT22;21729;58.392;15.656;2023-03-21T11:58:04;7.80;99.90
35607;DHT22;21729;58.392;15.656;2023-03-21T12:00:38;8.10;99.90
35607;DHT22;21729;58.392;15.656;2023-03-21T12:03:26;7.90;99.90
35607;DHT22;21729;58.392;15.656;2023-03-21T12:05:59;7.80;99.90
35607;DHT22;21729;58.392;15.656;2023-03-21T12:08:35;8.00;99.90
35607;DHT22;21729;58.392;15.656;2023-03-21T12:11:12;8.20;99.90
35607;DHT22;21729;58.392;15.656;2023-03-21T12:13:51;8.60;99.90
35607;DHT22;21729;58.392;15.656;2023-03-21T12:16:35;8.30;99.90
35607;DHT22;21729;58.392;15.656;2023-03-21T12:19:15;8.10;99.90
35607;DHT22;21729;58.392;15.656;2023-03-21T12:21:53;7.80;99.90
35607;DHT22;21729;58.392;15.656;2023-03-21T12:24:28;8.00;99.90
35607;DHT22;21729;58.392;15.656;2023-03-21T12:27:03;8.20;99.90
35607;DHT22;21729;58.392;15.656;2023-03-21T12:29:43;8.70;99.90
35607;DHT22;21729;58.392;15.656;2023-03-21T12:32:24;8.50;99.90
35607;DHT22;21729;58.392;15.656;2023-03-21T12:35:06;8.20;99.90
35607;DHT22;21729;58.392;15.656;2023-03-21T12:37:42;7.80;99.90
35607;DHT22;21729;58.392;15.656;2023-03-21T12:40:21;7.50;99.90
35607;DHT22;21729;58.392;15.656;2023-03-21T12:43:19;7.20;99.90
35607;DHT22;21729;58.392;15.656;2023-03-21T12:45:51;7.40;99.90
35607;DHT22;21729;58.392;15.656;2023-03-21T12:48:23;7.70;99.90
35607;DHT22;21729;58.392;15.656;2023-03-21T12:50:55;7.70;99.90
35607;DHT22;21729;58.392;15.656;2023-03-21T12:53:36;7.50;99.90
35607;DHT22;21729;58.392;15.656;2023-03-21T12:56:09;7.70;99.90
35607;DHT22;21729;58.392;15.656;2023-03-21T12:58:44;7.70;99.90
35607;DHT22;21729;58.392;15.656;2023-03-21T13:01:14;8.10;99.90
35607;DHT22;21729;58.392;15.656;2023-03-21T13:03:47;8.30;99.90
35607;DHT22;21729;58.392;15.656;2023-03-21T13:06:17;8.20;99.90
35607;DHT22;21729;58.392;15.656;2023-03-21T13:08:50;8.00;99.90
35607;DHT22;21729;58.392;15.656;2023-03-21T13:11:21;8.00;99.90
35607;DHT22;21729;58.392;15.656;2023-03-21T13:13:54;7.60;99.90
35607;DHT22;21729;58.392;15.656;2023-03-21T13:16:27;7.50;99.90
35607;DHT22;21729;58.392;15.656;2023-03-21T13:19:04;7.30;99.90
35607;DHT22;21729;58.392;15.656;2023-03-21T13:21:42;7.10;99.90
35607;DHT22;21729;58.392;15.656;2023-03-21T13:24:25;7.00;99.90
35607;DHT22;21729;58.392;15.656;2023-03-21T13:26:57;7.10;99.90
35607;DHT22;21729;58.392;15.656;2023-03-21T13:29:30;7.10;99.90
35607;DHT22;21729;58.392;15.656;2023-03-21T13:32:07;7.20;99.90
35607;DHT22;21729;58.392;15.656;2023-03-21T13:34:37;7.30;99.90
35607;DHT22;21729;58.392;15.656;2023-03-21T13:37:13;7.30;99.90
35607;DHT22;21729;58.392;15.656;2023-03-21T13:39:44;7.40;99.90
35607;DHT22;21729;58.392;15.656;2023-03-21T13:42:20;7.30;99.90
35607;DHT22;21729;58.392;15.656;2023-03-21T13:44:51;7.30;99.90
35607;DHT22;21729;58.392;15.656;2023-03-21T13:47:34;7.30;99.90
35607;DHT22;21729;58.392;15.656;2023-03-21T13:50:23;7.40;99.90
35607;DHT22;21729;58.392;15.656;2023-03-21T13:53:21;7.30;99.90
35607;DHT22;21729;58.392;15.656;2023-03-21T13:56:19;7.10;99.90
35607;DHT22;21729;58.392;15.656;2023-03-21T13:58:57;7.10;99.90
35607;DHT22;21729;58.392;15.656;2023-03-21T14:01:36;7.00;99.90
35607;DHT22;21729;58.392;15.656;2023-03-21T14:04:13;7.00;99.90
35607;DHT22;21729;58.392;15.656;2023-03-21T14:06:48;6.80;99.90
35607;DHT22;21729;58.392;15.656;2023-03-21T14:09:21;6.90;99.90
35607;DHT22;21729;58.392;15.656;2023-03-21T14:11:51;7.00;99.90
35607;DHT22;21729;58.392;15.656;2023-03-21T14:14:20;7.10;99.90
35607;DHT22;21729;58.392;15.656;2023-03-21T14:16:51;7.20;99.90
35607;DHT22;21729;58.392;15.656;2023-03-21T14:19:20;7.20;99.90
35607;DHT22;21729;58.392;15.656;2023-03-21T14:21:54;7.30;99.90
35607;DHT22;21729;58.392;15.656;2023-03-21T14:24:21;7.40;99.90
35607;DHT22;21729;58.392;15.656;2023-03-21T14:26:50;7.50;99.90
35607;DHT22;21729;58.392;15.656;2023-03-21T14:29:22;7.40;99.90
35607;DHT22;21729;58.392;15.656;2023-03-21T14:31:51;7.40;99.90
35607;DHT22;21729;58.392;15.656;2023-03-21T14:34:21;7.40;99.90
35607;DHT22;21729;58.392;15.656;2023-03-21T14:36:49;7.40;99.90
35607;DHT22;21729;58.392;15.656;2023-03-21T14:39:17;7.30;99.90
35607;DHT22;21729;58.392;15.656;2023-03-21T14:41:50;7.30;99.90
35607;DHT22;21729;58.392;15.656;2023-03-21T14:44:22;7.20;99.90
35607;DHT22;21729;58.392;15.656;2023-03-21T14:46:59;7.10;99.90
35607;DHT22;21729;58.392;15.656;2023-03-21T14:49:29;6.90;99.90
35607;DHT22;21729;58.392;15.656;2023-03-21T14:51:58;6.90;99.90
35607;DHT22;21729;58.392;15.656;2023-03-21T14:54:27;7.00;99.90
35607;DHT22;21729;58.392;15.656;2023-03-21T14:57:00;6.80;99.90
35607;DHT22;21729;58.392;15.656;2023-03-21T14:59:31;6.80;99.90
35607;DHT22;21729;58.392;15.656;2023-03-21T15:02:01;6.80;99.90
35607;DHT22;21729;58.392;15.656;2023-03-21T15:04:31;6.80;99.90
35607;DHT22;21729;58.392;15.656;2023-03-21T15:06:59;6.70;99.90
35607;DHT22;21729;58.392;15.656;2023-03-21T15:09:30;6.70;99.90
35607;DHT22;21729;58.392;15.656;2023-03-21T15:12:00;6.70;99.90
35607;DHT22;21729;58.392;15.656;2023-03-21T15:14:30;6.80;99.90
35607;DHT22;21729;58.392;15.656;2023-03-21T15:16:59;6.80;99.90
35607;DHT22;21729;58.392;15.656;2023-03-21T15:19:31;6.80;99.90
35607;DHT22;21729;58.392;15.656;2023-03-21T15:22:05;6.80;99.90
35607;DHT22;21729;58.392;15.656;2023-03-21T15:24:37;6.80;99.90
35607;DHT22;21729;58.392;15.656;2023-03-21T15:27:07;6.70;99.90
35607;DHT22;21729;58.392;15.656;2023-03-21T15:29:38;6.70;99.90
35607;DHT22;21729;58.392;15.656;2023-03-21T15:32:13;6.60;99.90
35607;DHT22;21729;58.392;15.656;2023-03-21T15:34:43;6.50;99.90
35607;DHT22;21729;58.392;15.656;2023-03-21T15:37:21;6.40;99.90
35607;DHT22;21729;58.392;15.656;2023-03-21T15:39:48;6.40;99.90
35607;DHT22;21729;58.392;15.656;2023-03-21T15:42:28;6.40;99.90
35607;DHT22;21729;58.392;15.656;2023-03-21T15:45:01;6.40;99.90
35607;DHT22;21729;58.392;15.656;2023-03-21T15:47:41;6.40;99.90
35607;DHT22;21729;58.392;15.656;2023-03-21T15:50:25;6.50;99.90
35607;DHT22;21729;58.392;15.656;2023-03-21T15:52:55;6.50;99.90
35607;DHT22;21729;58.392;15.656;2023-03-21T15:55:27;6.50;99.90
35607;DHT22;21729;58.392;15.656;2023-03-21T15:58:03;6.50;99.90
35607;DHT22;21729;58.392;15.656;2023-03-21T16:00:36;6.50;99.90
35607;DHT22;21729;58.392;15.656;2023-03-21T16:03:08;6.40;99.90
35607;DHT22;21729;58.392;15.656;2023-03-21T16:06:04;6.30;99.90
35607;DHT22;21729;58.392;15.656;2023-03-21T16:08:36;6.20;99.90